createdAt,value
2022-10-22T00:07:48.543Z,21.50
2022-10-22T00:17:52.262Z,20.90
2022-10-22T00:27:57.422Z,20.40
2022-10-22T00:38:01.176Z,20.90
2022-10-22T00:48:09.645Z,20.70
2022-10-22T00:58:14.749Z,19.70
2022-10-22T01:08:28.443Z,19.50
2022-10-22T01:18:39.448Z,19.50
2022-10-22T01:28:58.451Z,19.30
2022-10-22T01:39:04.085Z,19.30
2022-10-22T01:49:18.852Z,18.90
2022-10-22T01:59:34.571Z,18.70
2022-10-22T02:09:41.698Z,18.40
2022-10-22T02:19:50.224Z,18.20
2022-10-22T02:30:00.233Z,18.40
2022-10-22T02:40:04.577Z,18.40
2022-10-22T02:50:10.560Z,18.00
2022-10-22T03:00:15.421Z,17.80
2022-10-22T03:10:20.632Z,17.70
2022-10-22T03:20:24.432Z,18.10
2022-10-22T03:30:30.026Z,18.20
2022-10-22T03:40:33.796Z,18.10
2022-10-22T03:50:39.740Z,17.70
2022-10-22T04:00:43.744Z,17.60
2022-10-22T04:10:54.141Z,17.80
2022-10-22T04:20:58.073Z,18.00
2022-10-22T04:31:08.553Z,18.30
2022-10-22T04:41:13.566Z,17.90
2022-10-22T04:51:20.575Z,17.80
2022-10-22T05:01:25.800Z,17.70
2022-10-22T05:11:34.032Z,17.40
2022-10-22T05:21:40.042Z,17.30
2022-10-22T05:31:45.179Z,18.20
2022-10-22T05:41:49.032Z,17.60
2022-10-22T05:51:54.275Z,17.80
2022-10-22T06:01:58.068Z,18.00
2022-10-22T06:12:03.765Z,17.70
2022-10-22T06:22:07.593Z,17.70
2022-10-22T06:32:12.840Z,17.80
2022-10-22T06:42:16.596Z,18.40
2022-10-22T06:52:21.730Z,18.70
2022-10-22T07:02:25.489Z,18.60
2022-10-22T07:12:30.640Z,18.60
2022-10-22T07:22:34.389Z,19.00
2022-10-22T07:32:39.751Z,19.50
2022-10-22T07:42:43.471Z,19.40
2022-10-22T07:52:48.822Z,19.60
2022-10-22T08:02:52.959Z,20.40
2022-10-22T08:12:58.583Z,21.00
2022-10-22T08:23:02.584Z,21.60
2022-10-22T08:33:08.132Z,21.50
2022-10-22T08:43:43.331Z,21.90
2022-10-22T08:54:02.506Z,22.40
2022-10-22T09:04:14.167Z,23.30
2022-10-22T09:14:21.319Z,23.70
2022-10-22T09:24:34.918Z,24.10
2022-10-22T09:34:40.707Z,23.90
2022-10-22T09:44:47.774Z,24.60
2022-10-22T09:54:54.595Z,24.50
2022-10-22T10:04:59.351Z,24.00
2022-10-22T10:15:15.175Z,25.20
2022-10-22T10:25:47.817Z,25.60
2022-10-22T10:35:57.526Z,25.70
2022-10-22T10:46:11.856Z,26.40
2022-10-22T10:56:36.891Z,26.90
2022-10-22T11:06:44.703Z,27.90
2022-10-22T11:16:56.994Z,28.30
2022-10-22T11:27:08.122Z,28.80
2022-10-22T11:37:15.051Z,28.50
2022-10-22T11:47:21.466Z,28.50
2022-10-22T11:57:36.775Z,29.00
2022-10-22T12:07:54.807Z,28.10
2022-10-22T12:18:02.290Z,28.10
2022-10-22T12:28:06.608Z,27.70
2022-10-22T12:38:16.972Z,27.60
2022-10-22T12:48:24.217Z,27.50
2022-10-22T12:58:33.130Z,27.50
2022-10-22T13:08:37.041Z,27.80
2022-10-22T13:18:42.324Z,28.50
2022-10-22T13:28:52.917Z,29.20
2022-10-22T13:38:58.607Z,29.80
2022-10-22T13:49:02.278Z,30.30
2022-10-22T13:59:07.467Z,29.40
2022-10-22T14:09:16.571Z,28.20
2022-10-22T14:19:21.634Z,29.90
2022-10-22T14:29:25.403Z,30.80
2022-10-22T14:39:31.407Z,31.00
2022-10-22T14:49:35.522Z,31.00
2022-10-22T14:59:40.947Z,29.20
2022-10-22T15:09:45.053Z,28.20
2022-10-22T15:19:50.270Z,27.20
2022-10-22T15:29:54.299Z,26.60
2022-10-22T15:40:00.713Z,25.80
2022-10-22T15:50:04.480Z,25.00
2022-10-22T16:00:10.819Z,24.60
2022-10-22T16:10:14.498Z,24.50
2022-10-22T16:20:19.797Z,24.40
2022-10-22T16:30:23.825Z,24.20
2022-10-22T16:40:29.571Z,24.00
2022-10-22T16:50:33.260Z,23.80
2022-10-22T17:00:38.685Z,23.30
2022-10-22T17:10:43.037Z,23.30
2022-10-22T17:20:48.284Z,23.00
2022-10-22T17:30:52.025Z,22.90
2022-10-22T17:41:00.696Z,22.30
2022-10-22T17:51:08.774Z,22.00
2022-10-22T18:01:22.104Z,21.70
2022-10-22T18:11:31.753Z,21.40
2022-10-22T18:21:37.287Z,21.10
2022-10-22T18:31:41.046Z,20.70
2022-10-22T18:41:47.090Z,20.70
2022-10-22T18:51:53.172Z,20.50
2022-10-22T19:01:59.883Z,20.30
2022-10-22T19:12:03.596Z,20.20
2022-10-22T19:22:08.873Z,20.10
2022-10-22T19:32:13.730Z,20.00
2022-10-22T19:42:18.994Z,20.10
2022-10-22T19:52:22.834Z,20.00
2022-10-22T20:02:27.924Z,19.80
2022-10-22T20:12:31.713Z,19.70
2022-10-22T20:22:37.024Z,19.60
2022-10-22T20:32:41.550Z,19.40
2022-10-22T20:42:47.957Z,19.30
2022-10-22T20:52:51.621Z,19.30
2022-10-22T21:02:56.654Z,19.40
2022-10-22T21:13:00.712Z,19.00
2022-10-22T21:23:06.001Z,19.10
2022-10-22T21:33:09.993Z,19.00
2022-10-22T21:43:15.223Z,19.10
2022-10-22T21:53:18.890Z,18.90
2022-10-22T22:03:24.790Z,19.00
2022-10-22T22:13:28.504Z,19.00
2022-10-22T22:23:34.110Z,18.90
2022-10-22T22:33:37.796Z,19.00
2022-10-22T22:43:43.276Z,18.90
2022-10-22T22:53:47.850Z,18.90
2022-10-22T23:03:56.243Z,18.80
2022-10-22T23:14:01.461Z,18.70
2022-10-22T23:24:09.646Z,18.90
2022-10-22T23:34:16.189Z,18.90
2022-10-22T23:44:21.786Z,19.10
2022-10-22T23:54:25.766Z,19.10
